Time;durP1;ratioP1;P1;durP2;ratioP2;P2;SDS_P1;SDS_P2;PMS_P1;PMS_P2;Temp;Humidity;BMP_temperature;BMP_pressure;BME280_temperature;BME280_humidity;BME280_pressure;Samples;Min_cycle;Max_cycle;Signal;HPM_P1;HPM_P2
2021/01/26 00:00:06;;;;;;;9.93;5.07;;;;;;;-144.78;100.00;59851.00;5034572;28;20285;-75
2021/01/26 00:02:33;;;;;;;10.88;6.18;;;;;;;-144.78;100.00;59851.00;5034596;28;20198;-75
2021/01/26 00:04:59;;;;;;;6.78;4.35;;;;;;;-144.78;100.00;59851.00;5034506;28;20300;-75
2021/01/26 00:07:25;;;;;;;8.27;6.32;;;;;;;-144.78;100.00;59851.00;5034432;28;20273;-75
2021/01/26 00:09:52;;;;;;;8.07;5.25;;;;;;;-144.78;100.00;59851.00;5032692;28;20205;-75
2021/01/26 00:12:18;;;;;;;15.73;5.35;;;;;;;-144.78;100.00;59851.00;5023101;28;20194;-75
2021/01/26 00:14:44;;;;;;;7.63;5.38;;;;;;;-144.78;100.00;59851.00;5034312;28;20249;-76
2021/01/26 00:17:10;;;;;;;7.53;4.05;;;;;;;-144.78;100.00;59851.00;5034331;28;20281;-76
2021/01/26 00:19:37;;;;;;;10.68;6.40;;;;;;;-144.78;100.00;59851.00;5033997;28;20233;-75
2021/01/26 00:22:03;;;;;;;8.90;4.65;;;;;;;-144.78;100.00;59851.00;5031500;28;20611;-75
2021/01/26 00:24:29;;;;;;;9.52;5.82;;;;;;;-144.78;100.00;59851.00;5014247;28;20640;-74
2021/01/26 00:26:56;;;;;;;9.82;5.07;;;;;;;-144.78;100.00;59851.00;5018558;28;20210;-73
2021/01/26 00:29:22;;;;;;;16.30;6.07;;;;;;;-144.78;100.00;59851.00;5021199;28;20229;-75
2021/01/26 00:31:48;;;;;;;9.13;5.13;;;;;;;-144.78;100.00;59851.00;5034236;28;20236;-74
2021/01/26 00:34:14;;;;;;;9.13;4.07;;;;;;;-144.78;100.00;59851.00;5033989;28;20238;-74
2021/01/26 00:36:41;;;;;;;10.43;6.20;;;;;;;-144.78;100.00;59851.00;5034090;28;20216;-75
2021/01/26 00:39:07;;;;;;;12.90;5.68;;;;;;;-144.78;100.00;59851.00;5033895;28;20201;-75
2021/01/26 00:41:33;;;;;;;7.65;4.80;;;;;;;-144.78;100.00;59851.00;5033317;28;20540;-75
2021/01/26 00:44:00;;;;;;;10.98;6.45;;;;;;;-144.78;100.00;59851.00;5034469;28;20614;-73
2021/01/26 00:46:26;;;;;;;7.63;4.28;;;;;;;-144.78;100.00;59851.00;5033735;28;20239;-75
2021/01/26 00:48:52;;;;;;;14.23;6.38;;;;;;;-144.78;100.00;59851.00;5033796;28;20301;-74
2021/01/26 00:51:19;;;;;;;10.93;4.90;;;;;;;-144.78;100.00;59851.00;5024019;28;20285;-74
2021/01/26 00:53:45;;;;;;;13.10;6.00;;;;;;;-144.78;100.00;59851.00;5013976;28;20294;-76
2021/01/26 00:56:12;;;;;;;8.18;5.13;;;;;;;-144.78;100.00;59851.00;5029801;28;20233;-74
2021/01/26 00:58:38;;;;;;;4.95;4.05;;;;;;;-144.78;100.00;59851.00;5030076;28;20233;-75
2021/01/26 01:01:05;;;;;;;10.07;5.30;;;;;;;-144.78;100.00;59851.00;5025464;28;20282;-75
2021/01/26 01:03:31;;;;;;;6.38;5.15;;;;;;;-144.78;100.00;59851.00;5015747;28;20668;-75
2021/01/26 01:05:58;;;;;;;12.13;6.13;;;;;;;-144.78;100.00;59851.00;5013830;28;20202;-75
2021/01/26 01:08:24;;;;;;;11.18;5.30;;;;;;;-144.78;100.00;59851.00;5013616;28;20191;-75
2021/01/26 01:10:52;;;;;;;13.52;4.50;;;;;;;-144.78;100.00;59851.00;5029794;28;20364;-74
2021/01/26 01:13:18;;;;;;;10.73;4.32;;;;;;;-144.78;100.00;59851.00;5033722;28;20255;-75
2021/01/26 01:15:44;;;;;;;11.10;5.35;;;;;;;-144.78;100.00;59851.00;5021448;28;20304;-74
2021/01/26 01:18:11;;;;;;;10.35;6.60;;;;;;;-144.78;100.00;59851.00;5032343;28;20221;-75
2021/01/26 01:20:38;;;;;;;7.72;4.63;;;;;;;-144.78;100.00;59851.00;5033429;28;20707;-76
2021/01/26 01:23:04;;;;;;;12.75;4.55;;;;;;;-144.78;100.00;59851.00;5033414;28;20290;-74
2021/01/26 01:25:31;;;;;;;3.22;2.38;;;;;;;-144.78;100.00;59851.00;5033246;28;20190;-74
2021/01/26 01:27:57;;;;;;;7.50;4.05;;;;;;;-144.78;100.00;59851.00;5032718;28;20663;-74
2021/01/26 01:30:27;;;;;;;13.13;5.60;;;;;;;-144.78;100.00;59851.00;5033051;28;20741;-74
2021/01/26 01:32:53;;;;;;;6.13;3.50;;;;;;;-144.78;100.00;59851.00;5033127;28;20194;-74
2021/01/26 01:35:21;;;;;;;7.53;4.80;;;;;;;-144.78;100.00;59851.00;5033457;28;20225;-75
2021/01/26 01:37:47;;;;;;;8.57;4.05;;;;;;;-144.78;100.00;59851.00;5033283;28;20678;-74
2021/01/26 01:40:18;;;;;;;4.00;2.90;;;;;;;-144.78;100.00;59851.00;5033594;28;20648;-73
2021/01/26 01:42:44;;;;;;;8.77;5.45;;;;;;;-144.78;100.00;59851.00;5032788;28;20277;-74
2021/01/26 01:45:11;;;;;;;4.70;3.15;;;;;;;-144.78;100.00;59851.00;5033340;28;20280;-75
2021/01/26 01:47:41;;;;;;;8.18;3.70;;;;;;;-144.78;100.00;59851.00;5033063;28;20236;-75
2021/01/26 01:50:11;;;;;;;2.97;2.70;;;;;;;-144.78;100.00;59851.00;5031574;28;20640;-75
2021/01/26 01:52:38;;;;;;;7.55;1.55;;;;;;;-144.78;100.00;59851.00;5036898;28;20644;-74
2021/01/26 01:55:13;;;;;;;10.93;5.10;;;;;;;-144.78;100.00;59851.00;5027935;28;20226;-75
2021/01/26 01:57:44;;;;;;;5.15;3.17;;;;;;;-144.78;100.00;59851.00;5017763;28;20261;-75
2021/01/26 02:00:13;;;;;;;3.88;2.90;;;;;;;-144.78;100.00;59851.00;5032658;28;20228;-74
2021/01/26 02:02:44;;;;;;;6.88;4.63;;;;;;;-144.78;100.00;59851.00;5036870;28;20259;-75
2021/01/26 02:05:14;;;;;;;7.75;3.15;;;;;;;-144.78;100.00;59851.00;5036652;28;20200;-75
2021/01/26 02:07:42;;;;;;;6.65;3.63;;;;;;;-144.78;100.00;59851.00;5035385;28;20236;-76
2021/01/26 02:10:10;;;;;;;4.10;3.10;;;;;;;-144.78;100.00;59851.00;5028653;28;20280;-75
2021/01/26 02:12:36;;;;;;;7.10;4.75;;;;;;;-144.78;100.00;59851.00;5036741;28;20672;-73
2021/01/26 02:15:04;;;;;;;9.10;4.20;;;;;;;-144.78;100.00;59851.00;5036776;28;20226;-74
2021/01/26 02:17:51;;;;;;;6.63;3.30;;;;;;;-144.78;100.00;59851.00;5022346;28;20195;-75
2021/01/26 02:20:53;;;;;;;5.40;4.22;;;;;;;-144.78;100.00;59851.00;5018872;28;20199;-74
2021/01/26 02:23:50;;;;;;;8.23;3.75;;;;;;;-144.78;100.00;59851.00;5011813;28;20264;-75
2021/01/26 02:26:59;;;;;;;6.68;4.65;;;;;;;-144.78;100.00;59851.00;5017018;28;20230;-75
2021/01/26 02:29:32;;;;;;;12.02;4.47;;;;;;;-144.78;100.00;59851.00;5016216;28;20230;-74
2021/01/26 02:32:21;;;;;;;3.70;2.28;;;;;;;-144.78;100.00;59851.00;5016993;28;20287;-73
2021/01/26 02:35:29;;;;;;;3.00;1.98;;;;;;;-144.78;100.00;59851.00;5016598;28;20247;-75
2021/01/26 02:38:22;;;;;;;8.02;3.17;;;;;;;-144.78;100.00;59851.00;5009584;28;20630;-74
2021/01/26 02:40:56;;;;;;;5.95;2.75;;;;;;;-144.78;100.00;59851.00;5016321;28;20194;-75
2021/01/26 02:43:39;;;;;;;5.40;3.55;;;;;;;-144.78;100.00;59851.00;5016604;28;20306;-74
2021/01/26 02:46:11;;;;;;;8.75;5.05;;;;;;;-144.78;100.00;59851.00;5036194;28;20248;-73
2021/01/26 02:49:02;;;;;;;6.93;3.35;;;;;;;-144.78;100.00;59851.00;5035602;28;20248;-75
2021/01/26 02:51:36;;;;;;;4.68;4.13;;;;;;;-144.78;100.00;59851.00;5020727;28;20191;-74
2021/01/26 02:54:07;;;;;;;6.65;3.08;;;;;;;-144.78;100.00;59851.00;5015890;28;20349;-74
2021/01/26 02:56:40;;;;;;;5.20;2.97;;;;;;;-144.78;100.00;59851.00;5016830;28;20253;-75
2021/01/26 02:59:16;;;;;;;6.30;3.75;;;;;;;-144.78;100.00;59851.00;5028658;28;20230;-74
2021/01/26 03:01:47;;;;;;;8.50;3.90;;;;;;;-144.78;100.00;59851.00;5016246;28;20282;-75
2021/01/26 03:04:20;;;;;;;4.53;2.92;;;;;;;-144.78;100.00;59851.00;5031372;28;20277;-74
2021/01/26 03:06:51;;;;;;;5.88;3.80;;;;;;;-144.78;100.00;59851.00;5016087;28;20701;-73
2021/01/26 03:09:23;;;;;;;8.68;5.85;;;;;;;-144.78;100.00;59851.00;5015926;28;20198;-75
2021/01/26 03:11:55;;;;;;;12.13;5.35;;;;;;;-144.78;100.00;59851.00;5021410;28;20693;-74
2021/01/26 03:14:34;;;;;;;6.10;3.25;;;;;;;-144.78;100.00;59851.00;5035144;28;20221;-74
2021/01/26 03:17:10;;;;;;;7.10;3.70;;;;;;;-144.78;100.00;59851.00;5035208;28;20225;-75
2021/01/26 03:19:39;;;;;;;6.97;3.17;;;;;;;-144.78;100.00;59851.00;5018164;28;20216;-73
2021/01/26 03:22:08;;;;;;;7.90;3.15;;;;;;;-144.78;100.00;59851.00;5015806;28;20285;-75
2021/01/26 03:24:38;;;;;;;3.88;3.35;;;;;;;-144.78;100.00;59851.00;5025544;28;20289;-76
2021/01/26 03:27:09;;;;;;;4.53;2.58;;;;;;;-144.78;100.00;59851.00;5035495;28;20656;-74
2021/01/26 03:29:39;;;;;;;10.38;4.43;;;;;;;-144.78;100.00;59851.00;5034521;28;20308;-74
2021/01/26 03:32:09;;;;;;;3.45;2.83;;;;;;;-144.78;100.00;59851.00;5035264;28;20708;-74
2021/01/26 03:34:36;;;;;;;9.68;3.00;;;;;;;-144.78;100.00;59851.00;5024648;28;20711;-74
2021/01/26 03:37:03;;;;;;;9.55;3.22;;;;;;;-144.78;100.00;59851.00;5015406;28;20211;-73
2021/01/26 03:39:29;;;;;;;5.28;2.80;;;;;;;-144.78;100.00;59851.00;5026338;28;20714;-76
2021/01/26 03:41:55;;;;;;;6.80;4.30;;;;;;;-144.78;100.00;59851.00;5035255;28;20273;-76
2021/01/26 03:44:22;;;;;;;5.35;3.40;;;;;;;-144.78;100.00;59851.00;5034752;28;20256;-75
2021/01/26 03:47:03;;;;;;;7.28;4.30;;;;;;;-144.78;100.00;59851.00;5034804;28;20276;-74
2021/01/26 03:49:48;;;;;;;5.50;3.20;;;;;;;-144.78;100.00;59851.00;5034583;28;20283;-76
2021/01/26 03:52:32;;;;;;;7.53;3.72;;;;;;;-144.78;100.00;59851.00;5035070;28;20194;-75
2021/01/26 03:55:05;;;;;;;5.97;2.78;;;;;;;-144.78;100.00;59851.00;5034749;28;20297;-75
2021/01/26 03:57:45;;;;;;;4.55;3.13;;;;;;;-144.78;100.00;59851.00;5035001;28;20289;-75
2021/01/26 04:00:19;;;;;;;4.35;3.08;;;;;;;-144.78;100.00;59851.00;5034407;28;20293;-74
2021/01/26 04:03:04;;;;;;;6.25;3.38;;;;;;;-144.78;100.00;59851.00;5021681;28;20245;-75
2021/01/26 04:05:38;;;;;;;6.47;3.38;;;;;;;-144.78;100.00;59851.00;5014885;28;20183;-75
2021/01/26 04:08:11;;;;;;;2.60;2.40;;;;;;;-144.78;100.00;59851.00;5014769;28;20186;-74
2021/01/26 04:10:45;;;;;;;2.17;1.95;;;;;;;-144.78;100.00;59851.00;5014240;28;20277;-74
2021/01/26 04:13:16;;;;;;;4.38;2.22;;;;;;;-144.78;100.00;59851.00;5014763;28;20234;-75
2021/01/26 04:15:48;;;;;;;4.30;2.67;;;;;;;-144.78;100.00;59851.00;5027100;28;20264;-74
2021/01/26 04:18:18;;;;;;;5.85;3.03;;;;;;;-144.78;100.00;59851.00;5034600;28;20668;-75
2021/01/26 04:20:44;;;;;;;4.30;2.75;;;;;;;-144.78;100.00;59851.00;5034267;28;20679;-74
2021/01/26 04:23:12;;;;;;;5.43;2.75;;;;;;;-144.78;100.00;59851.00;5034407;28;20263;-74
2021/01/26 04:25:40;;;;;;;6.32;2.50;;;;;;;-144.78;100.00;59851.00;5034575;28;20194;-74
2021/01/26 04:28:10;;;;;;;3.83;3.30;;;;;;;-144.78;100.00;59851.00;5027503;28;20263;-74
2021/01/26 04:30:36;;;;;;;2.53;1.60;;;;;;;-144.78;100.00;59851.00;5027395;28;20194;-74
2021/01/26 04:33:05;;;;;;;4.35;2.78;;;;;;;-144.78;100.00;59851.00;5033761;28;20285;-75
2021/01/26 04:35:32;;;;;;;8.30;3.90;;;;;;;-144.78;100.00;59851.00;5033786;28;20316;-74
2021/01/26 04:37:58;;;;;;;4.07;2.83;;;;;;;-144.78;100.00;59851.00;5033474;28;20232;-74
2021/01/26 04:40:26;;;;;;;5.65;3.00;;;;;;;-144.78;100.00;59851.00;5033897;28;20216;-75
2021/01/26 04:43:00;;;;;;;6.35;2.90;;;;;;;-144.78;100.00;59851.00;5034145;28;20198;-74
2021/01/26 04:45:36;;;;;;;6.90;2.80;;;;;;;-144.78;100.00;59851.00;5033992;28;20604;-74
2021/01/26 04:48:08;;;;;;;6.72;3.10;;;;;;;-144.78;100.00;59851.00;5024599;28;20220;-73
2021/01/26 04:50:41;;;;;;;8.93;4.82;;;;;;;-144.78;100.00;59851.00;5014004;28;20278;-74
2021/01/26 04:53:23;;;;;;;4.03;2.13;;;;;;;-144.78;100.00;59851.00;5025517;28;20205;-74
2021/01/26 04:55:59;;;;;;;7.82;4.13;;;;;;;-144.78;100.00;59851.00;5033469;28;20655;-75
2021/01/26 04:58:39;;;;;;;3.15;2.28;;;;;;;-144.78;100.00;59851.00;5020776;28;20211;-75
2021/01/26 05:01:21;;;;;;;4.68;2.45;;;;;;;-144.78;100.00;59851.00;5013953;28;20285;-75
2021/01/26 05:04:00;;;;;;;4.22;2.85;;;;;;;-144.78;100.00;59851.00;5013668;28;20259;-75
2021/01/26 05:06:33;;;;;;;2.75;2.55;;;;;;;-144.78;100.00;59851.00;5013780;28;20190;-74
2021/01/26 05:09:02;;;;;;;5.35;2.50;;;;;;;-144.78;100.00;59851.00;5013701;28;20294;-74
2021/01/26 05:11:32;;;;;;;4.55;3.13;;;;;;;-144.78;100.00;59851.00;5014268;28;20286;-74
2021/01/26 05:14:02;;;;;;;3.35;2.00;;;;;;;-144.78;100.00;59851.00;5013845;28;20552;-74
2021/01/26 05:16:35;;;;;;;5.50;2.05;;;;;;;-144.78;100.00;59851.00;5013586;28;20675;-74
2021/01/26 05:19:07;;;;;;;3.42;3.13;;;;;;;-144.78;100.00;59851.00;5013785;28;20560;-74
2021/01/26 05:21:37;;;;;;;2.08;1.88;;;;;;;-144.78;100.00;59851.00;5013430;28;20213;-75
2021/01/26 05:24:14;;;;;;;2.60;2.22;;;;;;;-144.78;100.00;59851.00;5013993;28;20281;-75
2021/01/26 05:26:40;;;;;;;3.38;1.95;;;;;;;-144.78;100.00;59851.00;5031573;28;20280;-75
2021/01/26 05:29:06;;;;;;;1.10;1.00;;;;;;;-144.78;100.00;59851.00;5017761;28;20230;-75
2021/01/26 05:31:34;;;;;;;6.20;3.00;;;;;;;-144.78;100.00;59851.00;5017803;28;20529;-74
2021/01/26 05:34:07;;;;;;;7.57;2.75;;;;;;;-144.78;100.00;59851.00;5021430;28;20226;-76
2021/01/26 05:36:33;;;;;;;1.45;1.35;;;;;;;-144.78;100.00;59851.00;5017357;28;20234;-75
2021/01/26 05:39:00;;;;;;;2.90;2.70;;;;;;;-144.78;100.00;59851.00;5032337;28;20281;-77
2021/01/26 05:41:26;;;;;;;3.85;3.22;;;;;;;-144.78;100.00;59851.00;5037699;28;20190;-73
2021/01/26 05:43:56;;;;;;;2.13;1.75;;;;;;;-144.78;100.00;59851.00;5021289;28;20649;-74
2021/01/26 05:46:41;;;;;;;3.78;2.95;;;;;;;-144.78;100.00;59851.00;5017388;28;20281;-74
2021/01/26 05:49:08;;;;;;;3.45;2.30;;;;;;;-144.78;100.00;59851.00;5017934;28;20633;-74
2021/01/26 05:51:36;;;;;;;1.70;1.60;;;;;;;-144.78;100.00;59851.00;5017541;28;20297;-75
2021/01/26 05:54:06;;;;;;;2.28;1.55;;;;;;;-144.78;100.00;59851.00;5018119;28;20286;-74
2021/01/26 05:56:34;;;;;;;3.40;1.55;;;;;;;-144.78;100.00;59851.00;5031867;28;20289;-75
2021/01/26 05:59:20;;;;;;;2.10;2.00;;;;;;;-144.78;100.00;59851.00;5036592;28;20648;-75
2021/01/26 06:01:46;;;;;;;2.97;2.30;;;;;;;-144.78;100.00;59851.00;5035290;28;20623;-75
2021/01/26 06:04:16;;;;;;;7.38;2.17;;;;;;;-144.78;100.00;59851.00;5027328;28;20187;-75
2021/01/26 06:06:55;;;;;;;3.33;2.08;;;;;;;-144.78;100.00;59851.00;5017167;28;20682;-74
2021/01/26 06:09:36;;;;;;;3.53;2.20;;;;;;;-144.78;100.00;59851.00;5034685;28;20332;-75
2021/01/26 06:12:18;;;;;;;2.60;2.40;;;;;;;-144.78;100.00;59851.00;5034752;28;20289;-75
2021/01/26 06:14:46;;;;;;;3.58;2.15;;;;;;;-144.78;100.00;59851.00;5036208;28;20209;-74
2021/01/26 06:17:19;;;;;;;4.00;2.35;;;;;;;-144.78;100.00;59851.00;5034081;28;20195;-75
2021/01/26 06:20:03;;;;;;;2.70;2.15;;;;;;;-144.78;100.00;59851.00;5016701;28;20292;-74
2021/01/26 06:22:29;;;;;;;3.55;3.15;;;;;;;-144.78;100.00;59851.00;5016832;28;20632;-73
2021/01/26 06:24:57;;;;;;;1.50;1.35;;;;;;;-144.78;100.00;59851.00;5035525;28;20194;-73
2021/01/26 06:27:47;;;;;;;1.30;1.20;;;;;;;-144.78;100.00;59851.00;5034800;28;20296;-74
2021/01/26 06:30:22;;;;;;;2.90;1.45;;;;;;;-144.78;100.00;59851.00;5018633;28;20226;-74
2021/01/26 06:33:34;;;;;;;2.03;1.92;;;;;;;-144.78;100.00;59851.00;5036206;28;20189;-74
2021/01/26 06:36:14;;;;;;;3.60;1.73;;;;;;;-144.78;100.00;59851.00;5025092;28;20213;-75
2021/01/26 06:38:56;;;;;;;3.45;2.67;;;;;;;-144.78;100.00;59851.00;5035098;28;20190;-74
2021/01/26 06:41:41;;;;;;;3.25;1.58;;;;;;;-144.78;100.00;59851.00;5036006;28;20282;-74
2021/01/26 06:44:31;;;;;;;1.60;1.50;;;;;;;-144.78;100.00;59851.00;5035384;28;20234;-74
2021/01/26 06:47:22;;;;;;;1.42;1.33;;;;;;;-144.78;100.00;59851.00;5032936;28;20291;-75
2021/01/26 06:49:57;;;;;;;0.82;0.82;;;;;;;-144.78;100.00;59851.00;5015797;28;20599;-74
2021/01/26 06:52:44;;;;;;;2.05;1.85;;;;;;;-144.78;100.00;59851.00;5031026;28;20197;-75
2021/01/26 06:55:34;;;;;;;2.90;2.70;;;;;;;-144.78;100.00;59851.00;5035137;28;20291;-75
2021/01/26 06:58:30;;;;;;;1.92;1.80;;;;;;;-144.78;100.00;59851.00;5035529;28;20198;-73
2021/01/26 07:01:32;;;;;;;1.58;0.90;;;;;;;-144.78;100.00;59851.00;5035176;28;20201;-73
2021/01/26 07:04:23;;;;;;;5.28;2.65;;;;;;;-144.78;100.00;59851.00;5034635;28;20192;-73
2021/01/26 07:07:28;;;;;;;1.75;1.65;;;;;;;-144.78;100.00;59851.00;5031293;28;20608;-74
2021/01/26 07:10:11;;;;;;;3.47;2.78;;;;;;;-144.78;100.00;59851.00;4960982;28;20291;-73
2021/01/26 07:13:02;;;;;;;1.30;1.20;;;;;;;-144.78;100.00;59851.00;5034473;28;20198;-73
2021/01/26 07:15:37;;;;;;;2.22;2.03;;;;;;;-144.78;100.00;59851.00;5014807;28;20222;-72
2021/01/26 07:18:28;;;;;;;2.20;1.70;;;;;;;-144.78;100.00;59851.00;5033340;28;20635;-74
2021/01/26 07:21:13;;;;;;;1.50;1.40;;;;;;;-144.78;100.00;59851.00;5033564;28;20537;-73
2021/01/26 07:24:08;;;;;;;1.80;1.70;;;;;;;-144.78;100.00;59851.00;5034395;28;20197;-74
2021/01/26 07:26:48;;;;;;;1.88;1.52;;;;;;;-144.78;100.00;59851.00;5014303;28;20208;-74
2021/01/26 07:29:41;;;;;;;2.03;1.08;;;;;;;-144.78;100.00;59851.00;5020818;28;20943;-75
2021/01/26 07:32:16;;;;;;;1.63;1.35;;;;;;;-144.78;100.00;59851.00;5032104;28;20194;-73
2021/01/26 07:34:53;;;;;;;2.40;1.90;;;;;;;-144.78;100.00;59851.00;5025675;28;20228;-72
2021/01/26 07:37:22;;;;;;;2.80;1.52;;;;;;;-144.78;100.00;59851.00;5034983;28;20205;-73
2021/01/26 07:39:56;;;;;;;1.77;1.45;;;;;;;-144.78;100.00;59851.00;5034150;28;20205;-73
2021/01/26 07:42:29;;;;;;;1.45;1.13;;;;;;;-144.78;100.00;59851.00;5034226;28;20275;-72
2021/01/26 07:45:02;;;;;;;2.75;1.40;;;;;;;-144.78;100.00;59851.00;5034632;28;20201;-72
2021/01/26 07:47:33;;;;;;;2.45;1.33;;;;;;;-144.78;100.00;59851.00;5034201;28;20190;-72
2021/01/26 07:50:06;;;;;;;1.10;1.00;;;;;;;-144.78;100.00;59851.00;5034161;28;20281;-74
2021/01/26 07:52:36;;;;;;;1.20;1.05;;;;;;;-144.78;100.00;59851.00;5034630;28;20217;-74
2021/01/26 07:55:07;;;;;;;1.85;1.25;;;;;;;-144.78;100.00;59851.00;5029998;28;20214;-73
2021/01/26 07:57:40;;;;;;;1.85;1.40;;;;;;;-144.78;100.00;59851.00;5034679;28;20262;-74
2021/01/26 08:00:12;;;;;;;1.42;1.17;;;;;;;-144.78;100.00;59851.00;5033752;28;20537;-73
2021/01/26 08:02:45;;;;;;;8.10;2.72;;;;;;;-144.78;100.00;59851.00;5034275;28;20195;-73
2021/01/26 08:05:16;;;;;;;2.13;1.70;;;;;;;-144.78;100.00;59851.00;5033584;28;20219;-72
2021/01/26 08:07:44;;;;;;;2.75;1.52;;;;;;;-144.78;100.00;59851.00;5033605;28;20545;-72
2021/01/26 08:10:19;;;;;;;3.00;1.95;;;;;;;-144.78;100.00;59851.00;5022531;28;20203;-73
2021/01/26 08:12:48;;;;;;;3.60;3.28;;;;;;;-144.78;100.00;59851.00;5014287;28;20210;-73
2021/01/26 08:15:21;;;;;;;2.10;1.95;;;;;;;-144.78;100.00;59851.00;5014219;28;20237;-73
2021/01/26 08:17:48;;;;;;;3.65;1.17;;;;;;;-144.78;100.00;59851.00;5013835;28;20217;-73
2021/01/26 08:20:28;;;;;;;5.13;2.60;;;;;;;-144.78;100.00;59851.00;5028204;28;20206;-74
2021/01/26 08:22:58;;;;;;;2.85;2.13;;;;;;;-144.78;100.00;59851.00;5034414;28;20650;-72
2021/01/26 08:25:27;;;;;;;3.40;2.15;;;;;;;-144.78;100.00;59851.00;5033427;28;20259;-73
2021/01/26 08:27:58;;;;;;;2.22;2.03;;;;;;;-144.78;100.00;59851.00;5024422;28;20262;-74
2021/01/26 08:31:00;;;;;;;1.58;1.48;;;;;;;-144.78;100.00;59851.00;5024249;28;20734;-72
2021/01/26 08:33:29;;;;;;;2.45;1.08;;;;;;;-144.78;100.00;59851.00;5011174;28;20234;-73
2021/01/26 08:36:24;;;;;;;2.90;2.70;;;;;;;-144.78;100.00;59851.00;5033449;28;20218;-73
2021/01/26 08:39:00;;;;;;;1.83;1.73;;;;;;;-144.78;100.00;59851.00;5022195;28;20203;-74
2021/01/26 08:41:40;;;;;;;2.47;1.50;;;;;;;-144.78;100.00;59851.00;5016167;28;20237;-73
2021/01/26 08:44:09;;;;;;;4.07;2.10;;;;;;;-144.78;100.00;59851.00;5033591;28;20659;-73
2021/01/26 08:46:41;;;;;;;1.17;1.10;;;;;;;-144.78;100.00;59851.00;5031846;28;20206;-75
2021/01/26 08:49:22;;;;;;;1.77;1.52;;;;;;;-144.78;100.00;59851.00;5013201;28;20206;-73
2021/01/26 08:51:49;;;;;;;3.20;2.90;;;;;;;-144.78;100.00;59851.00;5013943;28;20225;-73
2021/01/26 08:54:36;;;;;;;3.53;3.13;;;;;;;-144.78;100.00;59851.00;5013856;28;20609;-74
2021/01/26 08:57:18;;;;;;;3.22;2.92;;;;;;;-144.78;100.00;59851.00;5003368;28;20217;-74
2021/01/26 08:59:46;;;;;;;1.58;1.20;;;;;;;-144.78;100.00;59851.00;5013010;28;20206;-72
2021/01/26 09:02:31;;;;;;;2.70;2.50;;;;;;;-144.78;100.00;59851.00;5012906;28;20233;-75
2021/01/26 09:04:58;;;;;;;5.53;2.35;;;;;;;-144.78;100.00;59851.00;5013517;28;20217;-74
2021/01/26 09:07:50;;;;;;;2.05;1.50;;;;;;;-144.78;100.00;59851.00;5016604;28;20194;-75
2021/01/26 09:10:25;;;;;;;4.90;2.72;;;;;;;-144.78;100.00;59851.00;5032953;28;20212;-72
2021/01/26 09:12:58;;;;;;;2.47;2.28;;;;;;;-144.78;100.00;59851.00;5032762;28;20360;-74
2021/01/26 09:15:26;;;;;;;1.33;1.23;;;;;;;-144.78;100.00;59851.00;5032517;28;20257;-74
2021/01/26 09:17:58;;;;;;;2.47;2.10;;;;;;;-144.78;100.00;59851.00;5032035;28;20373;-73
2021/01/26 09:20:28;;;;;;;1.70;1.50;;;;;;;-144.78;100.00;59851.00;5033062;28;20237;-73
2021/01/26 09:23:01;;;;;;;0.93;0.93;;;;;;;-144.78;100.00;59851.00;5033561;28;20550;-74
2021/01/26 09:25:32;;;;;;;5.18;3.28;;;;;;;-144.78;100.00;59851.00;5031160;28;20206;-73
2021/01/26 09:28:02;;;;;;;1.90;1.80;;;;;;;-144.78;100.00;59851.00;5013453;28;20275;-74
2021/01/26 09:30:31;;;;;;;10.50;2.25;;;;;;;-144.78;100.00;59851.00;5014901;28;20289;-73
2021/01/26 09:33:15;;;;;;;8.95;2.20;;;;;;;-144.78;100.00;59851.00;5033590;28;20194;-75
2021/01/26 09:35:44;;;;;;;3.28;2.10;;;;;;;-144.78;100.00;59851.00;5033153;28;20309;-73
2021/01/26 09:38:14;;;;;;;4.88;2.40;;;;;;;-144.78;100.00;59851.00;5032502;28;20608;-72
2021/01/26 09:40:44;;;;;;;2.80;2.53;;;;;;;-144.78;100.00;59851.00;5032647;28;20190;-73
2021/01/26 09:43:18;;;;;;;2.08;1.85;;;;;;;-144.78;100.00;59851.00;5032285;28;20206;-74
2021/01/26 09:45:52;;;;;;;3.90;2.28;;;;;;;-144.78;100.00;59851.00;5033013;28;20607;-74
2021/01/26 09:48:36;;;;;;;4.18;1.63;;;;;;;-144.78;100.00;59851.00;5033079;28;20316;-76
2021/01/26 09:51:15;;;;;;;1.48;1.20;;;;;;;-144.78;100.00;59851.00;5033290;28;20206;-75
2021/01/26 09:53:44;;;;;;;4.28;1.80;;;;;;;-144.78;100.00;59851.00;5032869;28;20666;-74
2021/01/26 09:56:11;;;;;;;6.18;2.38;;;;;;;-144.78;100.00;59851.00;5031061;28;20228;-75
2021/01/26 09:58:38;;;;;;;4.90;4.03;;;;;;;-144.78;100.00;59851.00;5032690;28;20225;-73
2021/01/26 10:01:06;;;;;;;4.35;2.83;;;;;;;-144.78;100.00;59851.00;5033333;28;20205;-73
2021/01/26 10:03:33;;;;;;;1.25;1.15;;;;;;;-144.78;100.00;59851.00;5032406;28;20199;-74
2021/01/26 10:06:00;;;;;;;3.83;3.53;;;;;;;-144.78;100.00;59851.00;5031970;28;20209;-73
2021/01/26 10:08:29;;;;;;;7.05;3.63;;;;;;;-144.78;100.00;59851.00;5031394;28;20214;-73
2021/01/26 10:11:07;;;;;;;14.88;2.40;;;;;;;-144.78;100.00;59851.00;5031608;28;20547;-73
2021/01/26 10:13:37;;;;;;;2.85;1.90;;;;;;;-144.78;100.00;59851.00;5031318;28;20186;-74
2021/01/26 10:16:29;;;;;;;2.80;2.60;;;;;;;-144.78;100.00;59851.00;5035736;28;20230;-72
2021/01/26 10:18:57;;;;;;;4.10;3.05;;;;;;;-144.78;100.00;59851.00;5035926;28;20651;-73
2021/01/26 10:21:29;;;;;;;2.97;2.67;;;;;;;-144.78;100.00;59851.00;5035457;28;20212;-73
2021/01/26 10:24:02;;;;;;;2.55;2.00;;;;;;;-144.78;100.00;59851.00;5035616;28;20241;-73
2021/01/26 10:26:31;;;;;;;2.75;2.38;;;;;;;-144.78;100.00;59851.00;5035227;28;20297;-73
2021/01/26 10:29:13;;;;;;;3.75;3.45;;;;;;;-144.78;100.00;59851.00;5034805;28;20565;-74
2021/01/26 10:31:48;;;;;;;4.45;2.78;;;;;;;-144.78;100.00;59851.00;5035642;28;20648;-72
2021/01/26 10:34:20;;;;;;;1.58;1.00;;;;;;;-144.78;100.00;59851.00;5036485;28;20193;-73
2021/01/26 10:36:47;;;;;;;2.08;1.88;;;;;;;-144.78;100.00;59851.00;5036202;28;20249;-74
2021/01/26 10:39:27;;;;;;;5.05;2.10;;;;;;;-144.78;100.00;59851.00;5032859;28;20240;-73
2021/01/26 10:42:04;;;;;;;5.88;3.28;;;;;;;-144.78;100.00;59851.00;5019660;28;20643;-74
2021/01/26 10:44:31;;;;;;;2.97;1.92;;;;;;;-144.78;100.00;59851.00;5015815;28;20243;-73
2021/01/26 10:46:59;;;;;;;6.03;2.90;;;;;;;-144.78;100.00;59851.00;5015857;28;20210;-75
2021/01/26 10:49:30;;;;;;;2.92;1.65;;;;;;;-144.78;100.00;59851.00;5015720;28;20272;-73
2021/01/26 10:51:59;;;;;;;2.83;1.98;;;;;;;-144.78;100.00;59851.00;5014806;28;20233;-74
2021/01/26 10:54:25;;;;;;;3.47;2.55;;;;;;;-144.78;100.00;59851.00;5015156;28;20610;-74
2021/01/26 10:56:52;;;;;;;2.28;2.17;;;;;;;-144.78;100.00;59851.00;5015413;28;20615;-73
2021/01/26 10:59:19;;;;;;;3.33;3.05;;;;;;;-144.78;100.00;59851.00;5015508;28;20195;-74
2021/01/26 11:01:46;;;;;;;4.07;2.65;;;;;;;-144.78;100.00;59851.00;5015591;28;20300;-75
2021/01/26 11:04:14;;;;;;;2.83;2.47;;;;;;;-144.78;100.00;59851.00;5015149;28;20297;-73
2021/01/26 11:06:41;;;;;;;15.50;2.78;;;;;;;-144.78;100.00;59851.00;5015257;28;20207;-73
2021/01/26 11:09:08;;;;;;;2.30;2.10;;;;;;;-144.78;100.00;59851.00;5034312;28;20281;-73
2021/01/26 11:11:35;;;;;;;7.63;3.28;;;;;;;-144.78;100.00;59851.00;5022707;28;20197;-73
2021/01/26 11:14:03;;;;;;;6.20;2.90;;;;;;;-144.78;100.00;59851.00;5034637;28;20213;-75
2021/01/26 11:16:30;;;;;;;5.10;3.35;;;;;;;-144.78;100.00;59851.00;5034655;28;20230;-73
2021/01/26 11:18:59;;;;;;;4.03;2.40;;;;;;;-144.78;100.00;59851.00;5035228;28;20566;-73
2021/01/26 11:21:27;;;;;;;2.78;2.58;;;;;;;-144.78;100.00;59851.00;5034641;28;20293;-75
2021/01/26 11:23:54;;;;;;;7.13;4.00;;;;;;;-144.78;100.00;59851.00;5034861;28;20210;-74
2021/01/26 11:26:22;;;;;;;3.00;2.47;;;;;;;-144.78;100.00;59851.00;5034878;28;20194;-72
2021/01/26 11:28:49;;;;;;;2.13;1.70;;;;;;;-144.78;100.00;59851.00;5034116;28;20230;-74
2021/01/26 11:31:17;;;;;;;3.55;3.10;;;;;;;-144.78;100.00;59851.00;5034232;28;20217;-74
2021/01/26 11:33:44;;;;;;;9.10;3.60;;;;;;;-144.78;100.00;59851.00;5034279;28;20210;-75
2021/01/26 11:36:11;;;;;;;3.10;2.80;;;;;;;-144.78;100.00;59851.00;5020554;28;20230;-74